Portada
METAR-TAF:

METAR-TAF

Aeroports :

Aeroport Internacional de Pequín

Pequín, Xina

latitud: 39-56N, longitud: 116-17E, altitud: 55 m

Observació

L'informe es va fer fa 40 minuts, a les 23:00 UTC
Vent 4 kt del Nord, variant entre Oest/Nord-Oest i Nord
Temperatura 3°C
Humitat 93%
Pressió 1027 hPa
Visibilitat: 8000 m

METAR: ZBAA 192300Z 35002MPS 300V010 8000 NSC 03/02 Q1027 NOSIG

Hora: 07:40 (23:40 UTC)

Pronòstic

L'informe es va fer fa 2 hores i 10 minuts, a les 21:30 UTC
Pronòstic vàlid del 20 a les 00 UTC al 20 a les 24 UTC
Vent 8 kt del Sud
Visibilitat: 5000 m
boirina

TAF: ZBAA 192130Z 2000/2024 18004MPS 5000 BR NSC TX18/2007Z TN05/2021Z

Observacions i pronòstics meteorològics de més de 4000 aeroports (METAR i TAF).

Les estacions disponibles són els punts grocs i vermells al mapa.

Posi el ratolí al punt desitjat per veure el nom de l'estació.

Feu clic per veure les observacions i els pronòstics meteorològics.

Per canviar el mapa: feu clic els botons verds amb una creu de color negre per apropar; al botó verd amb un guió per allunyar la imatge; o en les fletxes verdes per a mapes adjacents.


METAR-TAF: